Airfield :







YOU CAN JOIN US ON...

 
LOGIN :

Register | Disclaimer

   EN    FR    IT 

 









Legend :    VFR   Marginal VFR   IFR   Intensive IFR   Very Intensive IFR
Visi :
Ceiling :
>= 8 km
>= 3000ft
5 to 8 km
1000 to 3000 ft
1500m to 5 km
500 to 1000 ft
800 to 1500m
200 to 500 ft
< 800m
< 200 ft
Symbols :   Thunderstorms  Fog  Heavy snow  Heavy precipitations  Wind > 20 kt






- Airport Elevation : 166 ft
- IATA code : YCX


CYCX - Gagetown Heliport

CURRENT METAR :
  • 010347Z AUTO 01008KT 9SM OVC013 M00/M02 A2998

EXPIRED METARs :
  • 010331Z AUTO 02006KT 350V050 5SM -SN OVC013 M00/M02 A2998
  • 010300Z AUTO 36005KT 8SM OVC014 M01/M02 A2999 RMK SLP158
  • 010249Z AUTO 01006KT 4SM OVC016 M01/M02 A2999
  • 010229Z AUTO 36005KT 2 1/2SM VV012 M01/M02 A3000
  • 010215Z AUTO 35005KT 3SM VV012 M01/M02 A3001
  • 010211Z AUTO 35004KT 2 1/2SM VV012 M01/M02 A3001 RMK VSBY VRBL 1.8V7.0
  • 010202Z AUTO 34004KT 2 1/2SM OVC014 M01/M02 A3001 RMK VSBY VRBL 1.8V4.0
  • 010100Z AUTO 36005KT 9SM OVC013 M00/M03 A3003 RMK SLP172

Expired Forecast.



MET'MAP, your aeronautical weather chart ! - Copyright ORBIFLY December 2007 - Disclaimer

ORBIFLY MET'MAP TEAM :

Programming & Development : Alexandra Zaïnal
Concept & original design : Baudouin d'Aumeries
Assistance for programming : Marc-Olivier Méhu
Technical & hardware support : Manuel Goepfert

Contact : metmap@orbifly.com




SOURCES & CREDITS :

   NOAA